Time;durP1;ratioP1;P1;durP2;ratioP2;P2;SDS_P1;SDS_P2;PMS_P1;PMS_P2;Temp;Humidity;BMP_temperature;BMP_pressure;BME280_temperature;BME280_humidity;BME280_pressure;Samples;Min_cycle;Max_cycle;Signal;HPM_P1;HPM_P2
2023/02/07 00:01:23;;;;;;;32.67;19.97;;;-0.70;99.90;;;;;;5079876;28;20454;-69
2023/02/07 00:03:50;;;;;;;29.07;19.43;;;-0.80;99.90;;;;;;5079482;28;20462;-69
2023/02/07 00:06:22;;;;;;;32.13;19.47;;;-0.70;99.90;;;;;;5080442;28;20854;-69
2023/02/07 00:08:49;;;;;;;31.97;19.40;;;-0.80;99.90;;;;;;5080902;28;20502;-68
2023/02/07 00:11:19;;;;;;;26.47;18.87;;;-0.80;99.90;;;;;;5081351;28;20545;-69
2023/02/07 00:13:47;;;;;;;27.57;18.73;;;-0.80;99.90;;;;;;5081582;28;20453;-69
2023/02/07 00:16:15;;;;;;;35.50;20.50;;;-0.80;99.90;;;;;;5081460;28;20458;-69
2023/02/07 00:18:42;;;;;;;32.93;19.60;;;-0.80;99.90;;;;;;5082164;28;20461;-69
2023/02/07 00:21:11;;;;;;;28.50;19.23;;;-0.80;99.90;;;;;;5081926;28;20833;-68
2023/02/07 00:23:39;;;;;;;27.60;18.87;;;-0.80;99.90;;;;;;5081569;28;20554;-70
2023/02/07 00:26:07;;;;;;;30.47;18.40;;;-0.80;99.90;;;;;;5081850;28;20680;-69
2023/02/07 00:28:35;;;;;;;29.80;17.20;;;-0.80;99.90;;;;;;5081418;28;20457;-68
2023/02/07 00:31:07;;;;;;;28.40;17.73;;;-0.80;99.90;;;;;;5081657;28;20507;-68
2023/02/07 00:33:34;;;;;;;25.63;17.77;;;-0.80;99.90;;;;;;5081327;28;20455;-68
2023/02/07 00:36:03;;;;;;;28.20;17.17;;;-0.80;99.90;;;;;;5080842;28;20489;-68
2023/02/07 00:38:30;;;;;;;27.63;18.47;;;-0.80;99.90;;;;;;5082176;28;20527;-69
2023/02/07 00:41:00;;;;;;;29.77;19.07;;;-0.80;99.90;;;;;;5080699;28;20492;-68
2023/02/07 00:43:28;;;;;;;30.77;19.53;;;-0.80;99.90;;;;;;5080447;28;20493;-70
2023/02/07 00:45:55;;;;;;;31.37;19.17;;;-0.80;99.90;;;;;;5081112;28;20466;-69
2023/02/07 00:48:22;;;;;;;28.00;19.87;;;-0.80;99.90;;;;;;5080705;28;20922;-69
2023/02/07 00:50:49;;;;;;;31.50;19.43;;;-0.80;99.90;;;;;;5080797;28;20500;-68
2023/02/07 00:53:16;;;;;;;29.77;18.13;;;-0.80;99.90;;;;;;5081001;28;20490;-69
2023/02/07 00:55:43;;;;;;;29.20;18.33;;;-0.80;99.90;;;;;;5080706;28;20883;-68
2023/02/07 00:58:11;;;;;;;26.23;16.43;;;-0.90;99.90;;;;;;5081650;28;20512;-69
2023/02/07 01:00:38;;;;;;;26.80;18.50;;;-0.90;99.90;;;;;;5080739;28;20537;-69
2023/02/07 01:03:05;;;;;;;28.60;18.07;;;-0.90;99.90;;;;;;5080915;28;20537;-69
2023/02/07 01:05:32;;;;;;;31.90;19.30;;;-0.90;99.90;;;;;;5079333;28;20546;-68
2023/02/07 01:07:58;;;;;;;35.10;21.23;;;-0.90;99.90;;;;;;5078960;28;20545;-68
2023/02/07 01:10:25;;;;;;;34.30;22.60;;;-0.90;99.90;;;;;;5078307;28;20486;-69
2023/02/07 01:12:53;;;;;;;37.33;24.20;;;-1.00;99.90;;;;;;5079493;28;20489;-69
2023/02/07 01:15:21;;;;;;;42.30;25.63;;;-1.10;99.90;;;;;;5078408;28;20482;-69
2023/02/07 01:17:48;;;;;;;38.37;26.27;;;-1.10;99.90;;;;;;5077472;28;20486;-69
2023/02/07 01:20:15;;;;;;;42.47;25.23;;;-1.20;99.90;;;;;;5077675;28;20489;-69
2023/02/07 01:22:42;;;;;;;42.60;25.57;;;-1.30;99.90;;;;;;5078726;28;20534;-68
2023/02/07 01:25:09;;;;;;;40.50;26.47;;;-1.40;99.90;;;;;;5078197;28;20486;-69
2023/02/07 01:27:37;;;;;;;42.77;28.63;;;-1.40;99.90;;;;;;5078112;28;20561;-69
2023/02/07 01:30:05;;;;;;;41.67;25.77;;;-1.50;99.90;;;;;;5077929;28;20501;-70
2023/02/07 01:32:33;;;;;;;42.40;26.37;;;-1.60;99.90;;;;;;5077633;28;20557;-69
2023/02/07 01:35:01;;;;;;;43.20;26.73;;;-1.60;99.90;;;;;;5077826;28;20553;-69
2023/02/07 01:37:28;;;;;;;43.23;26.10;;;-1.60;99.90;;;;;;5077882;28;20500;-69
2023/02/07 01:39:55;;;;;;;40.07;25.77;;;-1.60;99.90;;;;;;5077099;28;20891;-69
2023/02/07 01:42:26;;;;;;;43.17;27.00;;;-1.70;99.90;;;;;;5077745;28;20497;-69
2023/02/07 01:45:12;;;;;;;42.67;27.90;;;-1.70;99.90;;;;;;5077039;28;21022;-68
2023/02/07 01:47:40;;;;;;;48.70;29.13;;;-1.70;99.90;;;;;;5077435;28;20877;-68
2023/02/07 01:50:09;;;;;;;43.30;28.43;;;-1.70;99.90;;;;;;5077234;28;20511;-69
2023/02/07 01:52:39;;;;;;;41.20;27.50;;;-1.70;99.90;;;;;;5077410;28;20490;-69
2023/02/07 01:55:09;;;;;;;45.40;27.50;;;-1.70;99.90;;;;;;5077966;28;20535;-69
2023/02/07 01:57:37;;;;;;;41.57;26.63;;;-1.70;99.90;;;;;;5078250;28;20462;-70
2023/02/07 02:00:05;;;;;;;39.73;26.80;;;-1.70;99.90;;;;;;5077977;28;20512;-68
2023/02/07 02:02:36;;;;;;;49.53;29.87;;;-1.70;99.90;;;;;;5077705;28;20557;-68
2023/02/07 02:05:05;;;;;;;36.07;26.80;;;-1.70;99.90;;;;;;5078286;28;20534;-69
2023/02/07 02:07:32;;;;;;;43.77;28.57;;;-1.70;99.90;;;;;;5077486;28;20482;-69
2023/02/07 02:09:59;;;;;;;46.97;29.67;;;-1.70;99.90;;;;;;5077728;28;20518;-69
2023/02/07 02:12:45;;;;;;;44.80;27.90;;;-1.70;99.90;;;;;;5076798;28;20928;-69
2023/02/07 02:15:28;;;;;;;49.23;28.27;;;-1.80;99.90;;;;;;5077174;28;20443;-69
2023/02/07 02:18:11;;;;;;;41.97;26.50;;;-1.80;99.90;;;;;;5077686;28;20525;-69
2023/02/07 02:21:10;;;;;;;42.37;26.60;;;-1.80;99.90;;;;;;5077658;28;20473;-69
2023/02/07 02:23:45;;;;;;;43.57;28.53;;;-1.80;99.90;;;;;;5076940;28;20474;-70
2023/02/07 02:26:41;;;;;;;45.43;30.03;;;-1.80;99.90;;;;;;5077175;28;20950;-68
2023/02/07 02:29:29;;;;;;;48.13;28.07;;;-1.80;99.90;;;;;;5076743;28;20453;-69
2023/02/07 02:32:31;;;;;;;45.80;27.97;;;-1.80;99.90;;;;;;5076945;28;20815;-68
2023/02/07 02:35:08;;;;;;;47.27;28.17;;;-1.80;99.90;;;;;;5069772;28;20485;-68
2023/02/07 02:37:46;;;;;;;39.37;27.83;;;-1.80;99.90;;;;;;5076727;28;20455;-69
2023/02/07 02:40:19;;;;;;;45.00;28.90;;;-1.80;99.90;;;;;;5076438;28;20457;-69
2023/02/07 02:42:52;;;;;;;36.63;22.87;;;-1.80;99.90;;;;;;5076080;28;20776;-69
2023/02/07 02:45:24;;;;;;;39.83;26.47;;;-1.80;99.90;;;;;;5076535;28;20474;-69
2023/02/07 02:47:52;;;;;;;38.27;25.53;;;-1.70;99.90;;;;;;5075775;28;20463;-69
2023/02/07 02:50:23;;;;;;;41.10;26.73;;;-1.80;99.90;;;;;;5075682;28;20490;-68
2023/02/07 02:52:50;;;;;;;41.53;26.60;;;-1.70;99.90;;;;;;5076030;28;20466;-71
2023/02/07 02:55:22;;;;;;;43.77;26.63;;;-1.70;99.90;;;;;;5075874;28;20848;-69
2023/02/07 02:58:05;;;;;;;40.30;26.20;;;-1.70;99.90;;;;;;5075533;28;20538;-70
2023/02/07 03:00:49;;;;;;;42.37;25.70;;;-1.70;99.90;;;;;;5075521;28;20503;-69
2023/02/07 03:03:37;;;;;;;35.73;23.23;;;-1.70;99.90;;;;;;5075546;28;20493;-69
2023/02/07 03:06:18;;;;;;;40.00;22.83;;;-1.70;99.90;;;;;;5075899;28;20553;-69
2023/02/07 03:08:51;;;;;;;32.40;22.60;;;-1.70;99.90;;;;;;5074979;28;20446;-69
2023/02/07 03:11:21;;;;;;;38.17;22.00;;;-1.70;99.90;;;;;;5075401;28;20783;-70
2023/02/07 03:13:59;;;;;;;33.97;21.43;;;-1.70;99.90;;;;;;5075272;28;20454;-68
2023/02/07 03:16:34;;;;;;;35.23;21.57;;;-1.70;99.90;;;;;;5074887;28;20438;-68
2023/02/07 03:19:06;;;;;;;39.90;21.10;;;-1.70;99.90;;;;;;5074913;28;20849;-69
2023/02/07 03:21:40;;;;;;;35.50;21.77;;;-1.70;99.90;;;;;;5074558;28;20529;-69
2023/02/07 03:24:12;;;;;;;38.13;20.57;;;-1.60;99.90;;;;;;5074937;28;20531;-69
2023/02/07 03:26:41;;;;;;;31.27;19.93;;;-1.60;99.90;;;;;;5074739;28;20513;-69
2023/02/07 03:29:09;;;;;;;33.00;19.70;;;-1.60;99.90;;;;;;5074798;28;20857;-69
2023/02/07 03:31:41;;;;;;;35.23;19.93;;;-1.60;99.90;;;;;;5074710;28;20529;-68
2023/02/07 03:34:12;;;;;;;35.77;21.07;;;-1.50;99.90;;;;;;5076084;28;20943;-68
2023/02/07 03:36:46;;;;;;;34.20;20.93;;;-1.50;99.90;;;;;;5078582;28;20466;-67
2023/02/07 03:39:13;;;;;;;32.57;20.87;;;-1.50;99.90;;;;;;5084007;28;20438;-69
2023/02/07 03:41:44;;;;;;;31.07;19.20;;;-1.50;99.90;;;;;;5083527;28;20485;-69
2023/02/07 03:44:14;;;;;;;30.23;20.73;;;-1.50;99.90;;;;;;5080472;28;20997;-70
2023/02/07 03:46:41;;;;;;;28.70;18.80;;;-1.50;99.90;;;;;;5078505;28;20541;-68
2023/02/07 03:49:10;;;;;;;30.20;19.60;;;-1.50;99.90;;;;;;5078022;28;20564;-69
2023/02/07 03:51:37;;;;;;;35.07;20.47;;;-1.50;99.90;;;;;;5077996;28;20454;-70
2023/02/07 03:54:05;;;;;;;30.17;19.93;;;-1.50;99.90;;;;;;5077778;28;20489;-70
2023/02/07 03:56:32;;;;;;;36.77;23.47;;;-1.50;99.90;;;;;;5077616;28;20462;-69
2023/02/07 03:58:59;;;;;;;33.10;20.50;;;-1.50;99.90;;;;;;5078428;28;20481;-69
2023/02/07 04:01:26;;;;;;;32.33;19.80;;;-1.50;99.90;;;;;;5077956;28;20536;-70
2023/02/07 04:03:53;;;;;;;32.57;20.27;;;-1.50;99.90;;;;;;5077875;28;20545;-70
2023/02/07 04:06:20;;;;;;;33.17;20.03;;;-1.50;99.90;;;;;;5077876;28;20852;-69
2023/02/07 04:08:47;;;;;;;31.77;20.27;;;-1.50;99.90;;;;;;5077986;28;20462;-69
2023/02/07 04:11:15;;;;;;;33.87;21.00;;;-1.50;99.90;;;;;;5077432;28;20537;-68
2023/02/07 04:13:42;;;;;;;34.20;22.43;;;-1.50;99.90;;;;;;5077698;28;20490;-68
2023/02/07 04:16:09;;;;;;;34.00;20.43;;;-1.50;99.90;;;;;;5077506;28;20497;-68
2023/02/07 04:18:36;;;;;;;37.07;22.97;;;-1.50;99.90;;;;;;5077570;28;20557;-68
2023/02/07 04:21:05;;;;;;;27.57;19.13;;;-1.50;99.90;;;;;;5078261;28;20557;-68
2023/02/07 04:23:33;;;;;;;33.37;21.57;;;-1.60;99.90;;;;;;5078097;28;20889;-68
2023/02/07 04:26:00;;;;;;;37.60;22.90;;;-1.50;99.90;;;;;;5077393;28;20489;-69
2023/02/07 04:28:28;;;;;;;32.47;20.23;;;-1.50;99.90;;;;;;5077314;28;20561;-69
2023/02/07 04:30:56;;;;;;;32.23;21.17;;;-1.60;99.90;;;;;;5077315;28;20543;-69
2023/02/07 04:33:23;;;;;;;33.27;20.40;;;-1.60;99.90;;;;;;5077618;28;20458;-69
2023/02/07 04:35:55;;;;;;;38.93;23.17;;;-1.60;99.90;;;;;;5077821;28;20557;-68
2023/02/07 04:38:22;;;;;;;37.10;22.93;;;-1.60;99.90;;;;;;5077544;28;20449;-68
2023/02/07 04:40:48;;;;;;;44.03;25.03;;;-1.60;99.90;;;;;;5077430;28;20545;-68
2023/02/07 04:43:15;;;;;;;35.10;21.70;;;-1.70;99.90;;;;;;5077097;28;20518;-68
2023/02/07 04:45:46;;;;;;;36.57;22.17;;;-1.70;99.90;;;;;;5076962;28;20848;-68
2023/02/07 04:48:13;;;;;;;41.63;24.53;;;-1.70;99.90;;;;;;5077162;28;20470;-69
2023/02/07 04:50:40;;;;;;;35.10;22.37;;;-1.70;99.90;;;;;;5077363;28;20486;-69
2023/02/07 04:53:07;;;;;;;31.53;21.57;;;-1.80;99.90;;;;;;5077348;28;20512;-68
2023/02/07 04:55:36;;;;;;;39.97;22.93;;;-1.80;99.90;;;;;;5077127;28;20520;-70
2023/02/07 04:58:03;;;;;;;35.70;23.53;;;-1.80;99.90;;;;;;5076978;28;20486;-69
2023/02/07 05:00:30;;;;;;;36.27;23.77;;;-1.80;99.90;;;;;;5077204;28;20558;-68
2023/02/07 05:02:58;;;;;;;36.53;24.87;;;-1.80;99.90;;;;;;5077241;28;20482;-68
2023/02/07 05:05:25;;;;;;;36.37;23.93;;;-1.80;99.90;;;;;;5077024;28;20493;-69
2023/02/07 05:07:52;;;;;;;34.83;23.57;;;-1.80;99.90;;;;;;5076664;28;20492;-69
2023/02/07 05:10:19;;;;;;;43.90;24.37;;;-1.80;99.90;;;;;;5076798;28;20553;-69
2023/02/07 05:12:46;;;;;;;38.67;25.60;;;-1.80;99.90;;;;;;5076681;28;20609;-69
2023/02/07 05:15:12;;;;;;;38.50;24.57;;;-1.90;99.90;;;;;;5076465;28;20494;-69
2023/02/07 05:17:39;;;;;;;41.80;22.87;;;-1.90;99.90;;;;;;5076422;28;20501;-69
2023/02/07 05:20:09;;;;;;;35.87;22.63;;;-1.90;99.90;;;;;;5076830;28;20501;-70
2023/02/07 05:22:36;;;;;;;33.27;21.30;;;-1.90;99.90;;;;;;5077036;28;20538;-69
2023/02/07 05:25:03;;;;;;;35.33;22.50;;;-2.00;99.90;;;;;;5077265;28;20490;-69
2023/02/07 05:27:30;;;;;;;32.07;20.80;;;-2.00;99.90;;;;;;5076950;28;20517;-68
2023/02/07 05:29:58;;;;;;;31.10;20.93;;;-2.00;99.90;;;;;;5076778;28;20778;-69
2023/02/07 05:35:11;;;;;;;28.53;20.93;;;-2.00;99.90;;;;;;5076956;28;20522;-70
2023/02/07 05:37:37;;;;;;;33.10;21.10;;;-2.00;99.90;;;;;;5077235;28;20841;-69
2023/02/07 05:40:05;;;;;;;35.67;22.27;;;-2.00;99.90;;;;;;5076977;28;20518;-68
2023/02/07 05:42:32;;;;;;;38.33;22.80;;;-2.00;99.90;;;;;;5076603;28;20462;-70
2023/02/07 05:44:59;;;;;;;34.90;22.90;;;-2.00;99.90;;;;;;5076401;28;21026;-70
2023/02/07 05:47:26;;;;;;;36.53;24.33;;;-1.90;99.90;;;;;;5077004;28;20514;-70
2023/02/07 05:49:53;;;;;;;36.37;22.70;;;-1.90;99.90;;;;;;5077171;28;20535;-69
2023/02/07 05:52:21;;;;;;;33.70;21.80;;;-1.90;99.90;;;;;;5077337;28;20466;-70
2023/02/07 05:54:48;;;;;;;35.33;23.13;;;-1.90;99.90;;;;;;5077224;28;20851;-69
2023/02/07 05:57:15;;;;;;;37.40;24.73;;;-1.90;99.90;;;;;;5076674;28;20542;-68
2023/02/07 05:59:41;;;;;;;34.50;22.20;;;-1.90;99.90;;;;;;5077451;28;20482;-69
2023/02/07 06:02:08;;;;;;;36.07;22.90;;;-1.90;99.90;;;;;;5077580;28;20454;-70
2023/02/07 06:04:35;;;;;;;42.40;25.70;;;-1.90;99.90;;;;;;5077698;28;20526;-68
2023/02/07 06:07:02;;;;;;;44.03;25.83;;;-1.90;99.90;;;;;;5077168;28;20497;-69
2023/02/07 06:09:31;;;;;;;39.37;23.50;;;-1.90;99.90;;;;;;5077305;28;20458;-69
2023/02/07 06:11:57;;;;;;;37.83;24.93;;;-1.90;99.90;;;;;;5077363;28;20501;-68
2023/02/07 06:14:24;;;;;;;39.70;23.43;;;-1.90;99.90;;;;;;5073034;28;20490;-70
2023/02/07 06:16:51;;;;;;;31.43;22.40;;;-1.90;99.90;;;;;;5057091;28;20487;-70
2023/02/07 06:19:18;;;;;;;36.63;24.10;;;-2.00;99.90;;;;;;5057522;28;20487;-70
2023/02/07 06:21:45;;;;;;;42.10;24.70;;;-1.90;99.90;;;;;;5057354;28;20520;-69
2023/02/07 06:24:12;;;;;;;32.40;22.53;;;-2.00;99.90;;;;;;5056895;28;20501;-68
2023/02/07 06:26:40;;;;;;;38.67;25.80;;;-2.00;99.90;;;;;;5057480;28;20481;-70
2023/02/07 06:29:07;;;;;;;40.77;24.60;;;-2.00;99.90;;;;;;5057286;28;20559;-69
2023/02/07 06:31:34;;;;;;;35.50;23.37;;;-2.00;99.90;;;;;;5057011;28;20487;-69
2023/02/07 06:34:01;;;;;;;37.67;23.63;;;-2.00;99.90;;;;;;5056853;28;20530;-69
2023/02/07 06:36:27;;;;;;;38.40;23.13;;;-2.00;99.90;;;;;;5056594;28;20538;-69
2023/02/07 06:38:54;;;;;;;34.50;22.47;;;-2.00;99.90;;;;;;5056946;28;20487;-69
2023/02/07 06:41:21;;;;;;;32.87;23.70;;;-2.00;99.90;;;;;;5057387;28;20622;-69
2023/02/07 06:43:50;;;;;;;36.43;25.87;;;-2.00;99.90;;;;;;5056264;28;20478;-69
2023/02/07 06:46:17;;;;;;;39.47;22.77;;;-2.00;99.90;;;;;;5056810;28;20502;-69
2023/02/07 06:48:44;;;;;;;31.70;22.83;;;-2.00;99.90;;;;;;5056895;28;20557;-69
2023/02/07 06:51:11;;;;;;;35.47;23.60;;;-2.00;99.90;;;;;;5056249;28;20463;-68
2023/02/07 06:53:37;;;;;;;34.83;23.90;;;-2.00;99.90;;;;;;5056778;28;20466;-69
2023/02/07 06:56:05;;;;;;;39.53;25.57;;;-2.00;99.90;;;;;;5057225;28;20512;-69
2023/02/07 06:58:33;;;;;;;37.50;25.23;;;-1.90;99.90;;;;;;5057224;28;20537;-69
2023/02/07 07:01:03;;;;;;;36.37;23.90;;;-1.90;99.90;;;;;;5060760;28;20549;-70
2023/02/07 07:03:30;;;;;;;40.03;23.60;;;-1.90;99.90;;;;;;5060863;28;20455;-69
2023/02/07 07:05:58;;;;;;;40.03;25.40;;;-1.80;99.90;;;;;;5060200;28;20487;-69
2023/02/07 07:08:26;;;;;;;40.23;25.20;;;-1.80;99.90;;;;;;5059772;28;20503;-69
2023/02/07 07:10:53;;;;;;;36.50;23.80;;;-1.80;99.90;;;;;;5060845;28;20686;-69
2023/02/07 07:13:20;;;;;;;46.60;24.40;;;-1.80;99.90;;;;;;5061089;28;20487;-69
2023/02/07 07:15:47;;;;;;;35.17;23.50;;;-1.80;99.90;;;;;;5060631;28;20852;-69
2023/02/07 07:18:15;;;;;;;30.63;20.77;;;-1.80;99.90;;;;;;5068164;28;20481;-70
2023/02/07 07:20:42;;;;;;;40.03;24.77;;;-1.80;99.90;;;;;;5081301;28;20497;-69
2023/02/07 07:23:09;;;;;;;32.17;23.50;;;-1.90;99.90;;;;;;5080317;28;20822;-68
2023/02/07 07:25:36;;;;;;;37.53;22.07;;;-1.90;99.90;;;;;;5080479;28;20522;-69
2023/02/07 07:28:03;;;;;;;36.87;24.53;;;-1.90;99.90;;;;;;5080586;28;20561;-69
2023/02/07 07:30:31;;;;;;;39.00;27.00;;;-1.80;99.90;;;;;;5080561;28;20462;-70
2023/02/07 07:32:58;;;;;;;41.33;24.80;;;-1.90;99.90;;;;;;5080739;28;20454;-69
2023/02/07 07:35:27;;;;;;;34.03;23.67;;;-1.80;99.90;;;;;;5080793;28;20530;-69
2023/02/07 07:37:54;;;;;;;39.97;25.90;;;-1.80;99.90;;;;;;5081184;28;20991;-69
2023/02/07 07:40:21;;;;;;;35.20;24.97;;;-1.80;99.90;;;;;;5085988;28;20458;-69
2023/02/07 07:42:48;;;;;;;41.30;24.03;;;-1.70;99.90;;;;;;5085830;28;20462;-68
2023/02/07 07:45:15;;;;;;;38.23;23.73;;;-1.70;99.90;;;;;;5085052;28;20839;-69
2023/02/07 07:47:42;;;;;;;38.10;24.30;;;-1.70;99.90;;;;;;5085328;28;20512;-69
2023/02/07 07:50:09;;;;;;;37.67;22.70;;;-1.70;99.90;;;;;;5083979;28;20450;-70
2023/02/07 07:52:37;;;;;;;46.43;24.33;;;-1.70;99.90;;;;;;5084091;28;20492;-68
2023/02/07 07:55:05;;;;;;;36.70;25.07;;;-1.60;99.90;;;;;;5084191;28;20515;-69
2023/02/07 07:57:32;;;;;;;38.83;24.10;;;-1.60;99.90;;;;;;5084141;28;20794;-69
2023/02/07 07:59:58;;;;;;;35.10;22.57;;;-1.50;99.90;;;;;;5085075;28;20462;-68
2023/02/07 08:02:26;;;;;;;44.43;23.83;;;-1.50;99.90;;;;;;5085980;28;20787;-72
2023/02/07 08:04:52;;;;;;;32.77;21.87;;;-1.40;99.90;;;;;;5085164;28;20804;-70
2023/02/07 08:07:19;;;;;;;35.00;23.80;;;-1.40;99.90;;;;;;5084347;28;20516;-69
2023/02/07 08:09:47;;;;;;;35.67;21.90;;;-1.30;99.90;;;;;;5083974;28;20454;-69
2023/02/07 08:12:14;;;;;;;31.37;23.53;;;-1.30;99.90;;;;;;5083747;28;21017;-69
2023/02/07 08:14:41;;;;;;;38.57;24.90;;;-1.20;99.90;;;;;;5084435;28;20505;-70
2023/02/07 08:17:08;;;;;;;35.00;23.30;;;-1.20;99.90;;;;;;5084461;28;20854;-69
2023/02/07 08:19:37;;;;;;;30.53;22.80;;;-1.20;99.90;;;;;;5082754;28;20496;-69
2023/02/07 08:22:04;;;;;;;39.07;24.73;;;-1.10;99.90;;;;;;5083817;28;20462;-68
2023/02/07 08:24:30;;;;;;;42.03;24.00;;;-1.00;99.90;;;;;;5084188;28;20839;-69
2023/02/07 08:26:59;;;;;;;33.73;23.63;;;-1.00;99.90;;;;;;5083636;28;20489;-69
2023/02/07 08:29:25;;;;;;;40.67;24.73;;;-1.00;99.90;;;;;;5083717;28;20878;-68
2023/02/07 08:31:52;;;;;;;35.30;22.93;;;-1.00;99.90;;;;;;5083564;28;20868;-69
2023/02/07 08:34:22;;;;;;;34.63;21.83;;;-1.00;99.90;;;;;;5084066;28;20469;-68
2023/02/07 08:36:49;;;;;;;36.10;23.70;;;-1.00;99.90;;;;;;5082818;28;20519;-69
2023/02/07 08:39:16;;;;;;;35.13;23.40;;;-1.00;99.90;;;;;;5083523;28;20482;-68
2023/02/07 08:41:43;;;;;;;34.90;23.33;;;-0.90;99.90;;;;;;5084096;28;20451;-68
2023/02/07 08:44:11;;;;;;;32.17;22.57;;;-0.90;99.90;;;;;;5083968;28;20482;-68
2023/02/07 08:46:38;;;;;;;36.30;22.50;;;-0.80;99.90;;;;;;5083433;28;20515;-68
2023/02/07 08:49:05;;;;;;;35.07;22.23;;;-0.70;99.90;;;;;;5084153;28;20516;-69
2023/02/07 08:51:32;;;;;;;35.63;23.33;;;-0.70;99.90;;;;;;5084071;28;20788;-69
2023/02/07 08:53:59;;;;;;;41.53;23.50;;;-0.60;99.90;;;;;;5083505;28;20482;-69
2023/02/07 08:56:26;;;;;;;35.83;23.00;;;-0.50;99.90;;;;;;5083232;28;20846;-68
2023/02/07 08:58:52;;;;;;;37.83;22.60;;;-0.50;99.90;;;;;;5084204;28;20514;-69
2023/02/07 09:01:21;;;;;;;33.67;21.30;;;-0.40;99.90;;;;;;5084093;28;20520;-69
2023/02/07 09:03:48;;;;;;;38.77;21.50;;;-0.30;99.90;;;;;;5083932;28;20504;-69
2023/02/07 09:06:14;;;;;;;33.73;21.63;;;-0.20;99.90;;;;;;5084122;28;20814;-71
2023/02/07 09:08:41;;;;;;;34.93;23.10;;;-0.10;99.90;;;;;;5081943;28;20516;-70
2023/02/07 09:11:08;;;;;;;32.90;20.93;;;-0.10;99.90;;;;;;5085523;28;20493;-68
2023/02/07 09:13:35;;;;;;;26.20;18.40;;;0.00;99.90;;;;;;5086435;28;20922;-70
2023/02/07 09:16:02;;;;;;;30.60;18.83;;;0.00;99.90;;;;;;5086677;28;20457;-69
2023/02/07 09:18:33;;;;;;;29.50;19.17;;;0.10;99.90;;;;;;5085921;28;20489;-68
2023/02/07 09:21:00;;;;;;;28.90;19.17;;;0.10;99.90;;;;;;5078735;28;20448;-69
2023/02/07 09:23:27;;;;;;;25.20;18.90;;;0.20;99.90;;;;;;5086537;28;20465;-69
2023/02/07 09:25:54;;;;;;;29.73;19.00;;;0.20;99.90;;;;;;5085323;28;20501;-68
2023/02/07 09:28:22;;;;;;;34.03;18.33;;;0.30;99.90;;;;;;5084458;28;20486;-68
2023/02/07 09:30:49;;;;;;;26.20;17.83;;;0.40;99.90;;;;;;5084045;28;20517;-68
2023/02/07 09:33:16;;;;;;;38.47;20.33;;;0.50;99.90;;;;;;5085027;28;20486;-70
2023/02/07 09:35:46;;;;;;;28.53;19.60;;;0.50;99.90;;;;;;5086676;28;20473;-68
2023/02/07 09:38:19;;;;;;;30.07;18.83;;;0.60;99.90;;;;;;5085658;28;20445;-69
2023/02/07 09:40:47;;;;;;;33.10;19.43;;;0.70;99.90;;;;;;5086443;28;20473;-68
2023/02/07 09:43:26;;;;;;;25.57;18.20;;;0.70;99.90;;;;;;5086483;28;20474;-69
2023/02/07 09:45:56;;;;;;;31.90;19.37;;;0.80;99.90;;;;;;5086685;28;20442;-69
2023/02/07 09:48:27;;;;;;;29.77;20.37;;;0.80;99.90;;;;;;5087987;28;20494;-70
2023/02/07 09:50:59;;;;;;;28.60;18.37;;;0.90;99.90;;;;;;5087207;28;20447;-70
2023/02/07 09:53:40;;;;;;;27.40;17.77;;;0.90;99.90;;;;;;5086847;28;20446;-69
2023/02/07 09:56:09;;;;;;;27.20;18.27;;;1.00;99.90;;;;;;5088462;28;20469;-68
2023/02/07 09:58:43;;;;;;;29.53;18.43;;;1.10;99.90;;;;;;5088641;28;20515;-69
2023/02/07 10:01:15;;;;;;;23.20;15.27;;;1.10;99.90;;;;;;5086854;28;20800;-69
2023/02/07 10:03:49;;;;;;;23.37;16.07;;;1.20;99.90;;;;;;5087293;28;20528;-69
2023/02/07 10:06:26;;;;;;;24.87;17.20;;;1.30;99.90;;;;;;5086783;28;20446;-68
2023/02/07 10:08:55;;;;;;;28.20;16.87;;;1.30;99.90;;;;;;5086781;28;20462;-69
2023/02/07 10:11:34;;;;;;;24.50;16.50;;;1.40;99.90;;;;;;5087167;28;20450;-69
2023/02/07 10:14:23;;;;;;;31.63;18.40;;;1.60;99.90;;;;;;5087033;28;20439;-69
2023/02/07 10:17:02;;;;;;;25.70;16.17;;;1.60;99.90;;;;;;5088088;28;20466;-69
2023/02/07 10:19:42;;;;;;;25.47;16.90;;;1.60;99.90;;;;;;5085344;28;20470;-69
2023/02/07 10:22:21;;;;;;;23.87;16.60;;;1.60;99.90;;;;;;5084502;28;20448;-69
2023/02/07 10:25:07;;;;;;;22.87;14.87;;;1.60;99.90;;;;;;5085325;28;20438;-69
2023/02/07 10:27:40;;;;;;;24.73;15.30;;;1.60;99.90;;;;;;5085395;28;20438;-68
2023/02/07 10:30:15;;;;;;;26.07;17.10;;;1.70;99.90;;;;;;5086789;28;20463;-68
2023/02/07 10:32:46;;;;;;;24.70;15.43;;;1.70;99.90;;;;;;5088028;28;20442;-69
2023/02/07 10:35:18;;;;;;;23.30;15.03;;;1.80;99.90;;;;;;5079547;28;20978;-68
2023/02/07 10:37:50;;;;;;;23.70;15.40;;;1.90;99.90;;;;;;5068295;28;20509;-67
2023/02/07 10:40:22;;;;;;;24.90;15.03;;;2.00;99.90;;;;;;5068168;28;20432;-69
2023/02/07 10:42:56;;;;;;;28.13;16.93;;;2.00;99.90;;;;;;5068319;28;20471;-68
2023/02/07 10:45:23;;;;;;;28.93;16.40;;;2.00;99.90;;;;;;5081101;28;20430;-69
2023/02/07 10:47:50;;;;;;;26.27;16.20;;;2.00;99.90;;;;;;5087822;28;20733;-69
2023/02/07 10:50:20;;;;;;;25.80;17.53;;;2.00;99.90;;;;;;5087346;28;20474;-68
2023/02/07 10:52:52;;;;;;;25.90;17.93;;;2.00;99.90;;;;;;5087017;28;20523;-70
2023/02/07 10:55:33;;;;;;;29.30;16.20;;;2.00;99.90;;;;;;5076226;28;20504;-68
2023/02/07 10:58:00;;;;;;;29.20;16.50;;;2.00;99.90;;;;;;5067421;28;20444;-70
2023/02/07 11:00:29;;;;;;;26.90;17.43;;;2.00;99.90;;;;;;5066638;28;20466;-68
2023/02/07 11:03:02;;;;;;;29.37;17.07;;;2.00;99.90;;;;;;5067252;28;20533;-69
2023/02/07 11:05:32;;;;;;;28.97;18.50;;;2.00;99.90;;;;;;5067051;28;20463;-69
2023/02/07 11:08:02;;;;;;;27.60;16.93;;;2.00;99.90;;;;;;5065154;28;20487;-69
2023/02/07 11:10:34;;;;;;;24.40;17.67;;;2.10;99.90;;;;;;5065901;28;20479;-70
2023/02/07 11:13:02;;;;;;;28.17;16.50;;;2.30;99.90;;;;;;5066665;28;20464;-69
2023/02/07 11:15:38;;;;;;;23.27;15.93;;;2.40;99.90;;;;;;5068046;28;20487;-69
2023/02/07 11:18:06;;;;;;;25.43;16.83;;;2.40;99.90;;;;;;5066948;28;20456;-68
2023/02/07 11:20:35;;;;;;;23.90;16.13;;;2.30;99.90;;;;;;5067810;28;20451;-68
2023/02/07 11:23:08;;;;;;;24.40;17.33;;;2.30;99.90;;;;;;5067693;28;20471;-69
2023/02/07 11:25:37;;;;;;;27.00;15.07;;;2.40;99.90;;;;;;5067266;28;20909;-70
2023/02/07 11:28:05;;;;;;;24.80;16.77;;;2.50;99.90;;;;;;5067373;28;20489;-69
2023/02/07 11:30:36;;;;;;;23.13;15.70;;;2.60;99.90;;;;;;5067287;28;20506;-68
2023/02/07 11:33:05;;;;;;;26.63;16.47;;;2.80;99.90;;;;;;5067225;28;20489;-69
2023/02/07 11:35:32;;;;;;;24.60;17.60;;;2.90;99.90;;;;;;5066027;28;20478;-69
2023/02/07 11:38:01;;;;;;;25.80;16.30;;;3.00;99.90;;;;;;5065260;28;20735;-69
2023/02/07 11:40:37;;;;;;;22.93;16.07;;;3.10;99.90;;;;;;5063966;28;20784;-69
2023/02/07 11:43:11;;;;;;;27.17;17.20;;;3.20;99.90;;;;;;5066794;28;20783;-68
2023/02/07 11:45:42;;;;;;;28.30;16.77;;;3.30;99.90;;;;;;5067522;28;20439;-68
2023/02/07 11:48:17;;;;;;;21.40;15.30;;;3.20;99.90;;;;;;5066768;28;20447;-67
2023/02/07 11:50:47;;;;;;;25.57;17.27;;;3.20;99.90;;;;;;5065738;28;20540;-68
2023/02/07 11:53:23;;;;;;;26.90;18.00;;;3.30;99.90;;;;;;5065620;28;20562;-69
2023/02/07 11:55:54;;;;;;;23.93;16.30;;;3.30;99.90;;;;;;5068376;28;20501;-69
2023/02/07 11:58:32;;;;;;;22.80;15.50;;;3.30;99.90;;;;;;5068378;28;20478;-69
2023/02/07 12:01:01;;;;;;;25.50;16.23;;;3.30;99.90;;;;;;5067536;28;20467;-69
2023/02/07 12:03:32;;;;;;;25.20;17.00;;;3.40;99.90;;;;;;5066865;28;20489;-68
2023/02/07 12:06:02;;;;;;;23.87;17.03;;;3.50;99.90;;;;;;5068119;28;20918;-68
2023/02/07 12:08:33;;;;;;;27.17;17.20;;;3.60;99.90;;;;;;5068349;28;20451;-68
2023/02/07 12:11:08;;;;;;;24.30;16.67;;;3.80;99.90;;;;;;5070769;28;20451;-69
2023/02/07 12:13:39;;;;;;;25.20;16.53;;;3.90;99.90;;;;;;5071481;28;20439;-68
2023/02/07 12:16:10;;;;;;;23.27;15.70;;;4.10;99.90;;;;;;5072391;28;20752;-69
2023/02/07 12:18:41;;;;;;;24.03;16.73;;;4.60;99.90;;;;;;5069862;28;20466;-70
2023/02/07 12:21:17;;;;;;;25.07;15.70;;;5.60;99.90;;;;;;5068891;28;20443;-68
2023/02/07 12:23:49;;;;;;;25.20;15.07;;;6.70;99.90;;;;;;5068118;28;20503;-68
2023/02/07 12:26:23;;;;;;;25.30;16.20;;;7.70;99.90;;;;;;5065908;28;20510;-69
2023/02/07 12:29:07;;;;;;;20.50;15.50;;;8.70;97.10;;;;;;5067402;28;20531;-69
2023/02/07 12:31:43;;;;;;;19.60;14.60;;;9.30;88.60;;;;;;5068206;28;20440;-69
2023/02/07 12:34:17;;;;;;;21.80;15.27;;;10.20;90.90;;;;;;5069239;28;20439;-68
2023/02/07 12:36:48;;;;;;;20.70;15.63;;;11.40;76.30;;;;;;5070075;28;20515;-69
2023/02/07 12:39:21;;;;;;;22.33;16.03;;;12.20;61.90;;;;;;5070278;28;20436;-68
2023/02/07 12:41:53;;;;;;;23.30;16.33;;;13.10;60.90;;;;;;5069860;28;20527;-68
2023/02/07 12:44:24;;;;;;;21.37;15.17;;;13.60;51.10;;;;;;5070503;28;20509;-68
2023/02/07 12:47:01;;;;;;;22.53;16.20;;;13.40;45.30;;;;;;5072080;28;20443;-68